createdAt,value
2022-08-04T00:02:04.747Z,27.20
2022-08-04T00:04:47.596Z,27.20
2022-08-04T00:07:55.451Z,27.20
2022-08-04T00:10:28.744Z,27.30
2022-08-04T00:15:48.521Z,27.30
2022-08-04T00:18:21.695Z,27.40
2022-08-04T00:21:01.518Z,27.50
2022-08-04T00:24:11.383Z,27.50
2022-08-04T00:26:28.838Z,27.60
2022-08-04T00:29:00.171Z,27.60
2022-08-04T00:31:53.871Z,27.60
2022-08-04T00:34:23.401Z,27.70
2022-08-04T00:36:57.024Z,27.70
2022-08-04T00:42:31.486Z,27.70
2022-08-04T00:46:15.146Z,27.70
2022-08-04T00:49:03.048Z,27.80
2022-08-04T00:55:13.650Z,27.70
2022-08-04T00:58:20.381Z,27.70
2022-08-04T01:00:57.724Z,27.80
2022-08-04T01:03:51.281Z,27.90
2022-08-04T01:06:43.243Z,27.90
2022-08-04T01:09:44.201Z,27.80
2022-08-04T01:12:24.080Z,27.80
2022-08-04T01:15:21.271Z,27.80
2022-08-04T01:17:56.620Z,27.80
2022-08-04T01:20:29.951Z,27.80
2022-08-04T01:23:19.545Z,27.90
2022-08-04T01:26:41.909Z,27.90
2022-08-04T01:29:17.345Z,27.90
2022-08-04T01:32:05.526Z,28.10
2022-08-04T01:34:47.384Z,28.30
2022-08-04T01:37:36.753Z,28.50
2022-08-04T01:40:15.303Z,28.50
2022-08-04T01:42:47.432Z,28.50
2022-08-04T01:45:18.841Z,28.60
2022-08-04T01:47:58.097Z,28.50
2022-08-04T01:50:33.629Z,28.60
2022-08-04T01:53:05.938Z,28.60
2022-08-04T01:55:54.631Z,28.60
2022-08-04T01:58:27.468Z,28.70
2022-08-04T02:01:08.477Z,28.80
2022-08-04T02:04:20.921Z,28.80
2022-08-04T02:06:48.169Z,28.80
2022-08-04T02:09:34.692Z,29.00
2022-08-04T02:12:52.626Z,29.00
2022-08-04T02:15:32.220Z,29.00
2022-08-04T02:18:08.334Z,29.00
2022-08-04T02:20:48.126Z,29.10
2022-08-04T02:23:32.185Z,29.00
2022-08-04T02:26:24.335Z,28.90
2022-08-04T02:29:12.465Z,29.00
2022-08-04T02:31:57.213Z,29.20
2022-08-04T02:34:40.866Z,29.20
2022-08-04T02:37:34.637Z,29.20
2022-08-04T02:40:11.331Z,29.10
2022-08-04T02:42:45.613Z,29.10
2022-08-04T02:45:20.792Z,29.20
2022-08-04T02:48:23.647Z,29.20
2022-08-04T02:50:47.783Z,29.20
2022-08-04T02:53:27.318Z,29.30
2022-08-04T02:55:59.608Z,29.50
2022-08-04T02:58:36.854Z,29.50
2022-08-04T03:01:08.610Z,29.70
2022-08-04T03:03:50.684Z,29.80
2022-08-04T03:06:33.002Z,30.00
2022-08-04T03:09:35.148Z,30.00
2022-08-04T03:12:21.584Z,30.20
2022-08-04T03:15:13.656Z,30.40
2022-08-04T03:21:27.831Z,30.40
2022-08-04T03:24:28.073Z,30.50
2022-08-04T03:27:31.176Z,30.50
2022-08-04T03:30:22.671Z,30.40
2022-08-04T03:33:50.216Z,30.60
2022-08-04T03:36:31.938Z,30.70
2022-08-04T03:39:21.734Z,30.80
2022-08-04T03:42:04.415Z,30.80
2022-08-04T03:44:57.837Z,30.90
2022-08-04T03:47:42.216Z,31.00
2022-08-04T03:50:41.765Z,31.10
2022-08-04T03:53:47.850Z,30.90
2022-08-04T03:56:34.437Z,31.00
2022-08-04T03:59:39.287Z,31.10
2022-08-04T04:02:38.438Z,31.20
2022-08-04T04:05:58.800Z,31.10
2022-08-04T04:08:30.950Z,31.40
2022-08-04T04:11:25.122Z,31.50
2022-08-04T04:14:21.319Z,31.30
2022-08-04T04:17:11.716Z,31.20
2022-08-04T04:19:58.593Z,31.40
2022-08-04T04:23:00.939Z,31.70
2022-08-04T04:25:50.614Z,31.90
2022-08-04T04:28:44.286Z,31.90
2022-08-04T04:31:44.472Z,32.00
2022-08-04T04:34:30.866Z,32.00
2022-08-04T04:37:23.379Z,31.80
2022-08-04T04:40:31.940Z,31.90
2022-08-04T04:43:50.394Z,32.10
2022-08-04T04:46:51.154Z,32.00
2022-08-04T04:49:37.686Z,32.00
2022-08-04T04:52:11.930Z,32.20
2022-08-04T04:55:18.398Z,32.60
2022-08-04T04:57:55.251Z,33.10
2022-08-04T05:00:50.044Z,33.60
2022-08-04T05:03:51.757Z,33.80
2022-08-04T05:06:54.326Z,33.70
2022-08-04T05:09:39.845Z,34.20
2022-08-04T05:14:31.419Z,33.90
2022-08-04T05:15:42.837Z,33.40
2022-08-04T05:18:21.261Z,33.20
2022-08-04T05:21:03.429Z,33.40
2022-08-04T05:23:39.947Z,33.80
2022-08-04T05:26:15.352Z,33.90
2022-08-04T05:28:54.863Z,34.20
2022-08-04T05:31:36.879Z,34.30
2022-08-04T05:34:13.536Z,34.30
2022-08-04T05:37:11.252Z,34.70
2022-08-04T05:40:13.217Z,34.90
2022-08-04T05:42:44.771Z,34.90
2022-08-04T05:45:25.027Z,34.50
2022-08-04T05:48:13.399Z,34.20
2022-08-04T05:50:47.068Z,34.10
2022-08-04T05:53:19.886Z,34.00
2022-08-04T05:55:58.573Z,33.70
2022-08-04T05:58:33.300Z,33.40
2022-08-04T06:01:05.678Z,32.60
2022-08-04T06:03:38.934Z,32.00
2022-08-04T06:06:31.949Z,31.60
2022-08-04T06:09:04.435Z,31.20
2022-08-04T06:12:00.608Z,31.10
2022-08-04T06:14:34.607Z,31.10
2022-08-04T06:18:33.048Z,31.30
2022-08-04T06:20:18.962Z,31.80
2022-08-04T06:22:59.269Z,32.20
2022-08-04T06:25:42.267Z,32.60
2022-08-04T06:28:15.147Z,32.90
2022-08-04T06:32:30.488Z,33.30
2022-08-04T06:34:07.822Z,33.50
2022-08-04T06:36:42.585Z,33.60
2022-08-04T06:39:15.221Z,33.60
2022-08-04T06:42:14.823Z,33.50
2022-08-04T06:44:42.851Z,33.40
2022-08-04T06:47:21.006Z,33.20
2022-08-04T06:51:27.120Z,33.20
2022-08-04T06:52:48.566Z,32.90
2022-08-04T06:55:19.874Z,32.40
2022-08-04T06:57:51.525Z,32.10
2022-08-04T07:00:25.428Z,31.80
2022-08-04T07:02:59.526Z,31.70
2022-08-04T07:05:31.690Z,31.50
2022-08-04T07:08:03.324Z,31.60
2022-08-04T07:10:34.739Z,31.80
2022-08-04T07:13:06.396Z,32.10
2022-08-04T07:15:41.148Z,32.40
2022-08-04T07:23:40.811Z,33.60
2022-08-04T07:26:13.510Z,33.80
2022-08-04T07:28:45.376Z,33.80
2022-08-04T07:31:33.279Z,34.10
2022-08-04T07:34:16.535Z,34.20
2022-08-04T07:36:57.282Z,34.40
2022-08-04T07:39:32.927Z,34.60
2022-08-04T07:42:24.546Z,34.50
2022-08-04T07:44:56.162Z,34.90
2022-08-04T07:47:29.081Z,34.90
2022-08-04T07:50:00.840Z,35.10
2022-08-04T07:52:39.592Z,35.30
2022-08-04T07:55:31.686Z,35.00
2022-08-04T07:58:03.598Z,35.00
2022-08-04T08:00:35.483Z,35.20
2022-08-04T08:03:08.322Z,35.30
2022-08-04T08:06:18.035Z,35.10
2022-08-04T08:08:32.798Z,35.10
2022-08-04T08:11:04.599Z,34.90
2022-08-04T08:13:38.690Z,34.60
2022-08-04T08:16:10.418Z,34.40
2022-08-04T08:18:45.539Z,34.20
2022-08-04T08:21:23.057Z,34.00
2022-08-04T08:23:54.601Z,33.70
2022-08-04T08:29:11.515Z,33.40
2022-08-04T08:31:58.302Z,33.40
2022-08-04T08:34:33.217Z,33.10
2022-08-04T08:37:41.842Z,32.80
2022-08-04T08:40:44.754Z,32.50
2022-08-04T08:44:04.956Z,32.30
2022-08-04T08:46:45.207Z,32.00
2022-08-04T08:50:03.032Z,31.60
2022-08-04T08:52:57.311Z,31.20
2022-08-04T08:59:01.880Z,30.70
2022-08-04T09:01:53.811Z,30.70
2022-08-04T09:04:35.300Z,30.60
2022-08-04T09:07:26.899Z,30.40
2022-08-04T09:10:22.542Z,30.40
2022-08-04T09:13:36.402Z,30.40
2022-08-04T09:16:38.456Z,30.30
2022-08-04T09:19:44.836Z,30.10
2022-08-04T09:22:41.458Z,29.80
2022-08-04T09:25:50.306Z,29.30
2022-08-04T09:28:52.824Z,29.20
2022-08-04T09:31:51.749Z,29.20
2022-08-04T09:35:03.277Z,29.20
2022-08-04T09:38:05.528Z,28.80
2022-08-04T09:40:55.626Z,29.00
2022-08-04T09:43:58.786Z,29.10
2022-08-04T09:46:49.772Z,29.20
2022-08-04T09:49:42.233Z,29.20
2022-08-04T09:52:39.068Z,28.80
2022-08-04T09:55:53.873Z,28.90
2022-08-04T09:58:57.055Z,28.80
2022-08-04T10:01:33.652Z,28.80
2022-08-04T10:04:08.608Z,28.90
2022-08-04T10:07:23.683Z,28.80
2022-08-04T10:10:14.556Z,28.90
2022-08-04T10:13:05.290Z,28.90
2022-08-04T10:16:23.265Z,28.90
2022-08-04T10:19:37.049Z,28.80
2022-08-04T10:23:11.421Z,28.80
2022-08-04T10:26:30.602Z,28.80
2022-08-04T10:29:27.473Z,28.80
2022-08-04T10:32:07.549Z,28.80
2022-08-04T10:34:45.094Z,28.70
2022-08-04T10:37:59.450Z,28.80
2022-08-04T10:40:38.908Z,28.80
2022-08-04T10:43:31.718Z,28.80
2022-08-04T10:46:22.915Z,28.70
2022-08-04T10:49:16.790Z,28.80
2022-08-04T10:51:58.139Z,28.60
2022-08-04T10:54:49.678Z,28.60
2022-08-04T10:57:46.428Z,28.40
2022-08-04T11:00:26.509Z,28.60
2022-08-04T11:03:22.231Z,28.70
2022-08-04T11:06:00.513Z,28.60
2022-08-04T11:08:46.332Z,28.60
2022-08-04T11:11:29.188Z,28.70
2022-08-04T11:14:18.999Z,28.60
2022-08-04T11:16:54.247Z,28.60
2022-08-04T11:19:45.311Z,28.60
2022-08-04T11:22:26.062Z,28.80
2022-08-04T11:25:23.841Z,28.80
2022-08-04T11:28:44.191Z,28.60
2022-08-04T11:31:29.073Z,28.70
2022-08-04T11:34:26.180Z,28.60
2022-08-04T11:37:41.047Z,28.60
2022-08-04T11:40:39.169Z,28.60
2022-08-04T11:43:56.507Z,28.50
2022-08-04T11:46:25.743Z,28.50
2022-08-04T11:51:54.090Z,28.50
2022-08-04T11:54:25.838Z,28.40
2022-08-04T11:57:17.753Z,28.40
2022-08-04T12:00:10.727Z,28.50
2022-08-04T12:03:02.843Z,28.50
2022-08-04T12:05:38.532Z,28.50
2022-08-04T12:09:12.615Z,28.50
2022-08-04T12:11:52.164Z,28.40
2022-08-04T12:14:42.297Z,28.40
2022-08-04T12:17:24.654Z,28.30
2022-08-04T12:20:31.355Z,28.30
2022-08-04T12:23:06.005Z,28.20
2022-08-04T12:25:45.124Z,28.10
2022-08-04T12:29:07.253Z,28.20
2022-08-04T12:31:44.454Z,28.20
2022-08-04T12:35:03.704Z,28.20
2022-08-04T12:41:01.976Z,28.20
2022-08-04T12:43:44.972Z,28.20
2022-08-04T12:46:31.215Z,28.00
2022-08-04T12:50:00.012Z,28.10
2022-08-04T12:53:01.479Z,27.90
2022-08-04T12:55:37.340Z,27.80
2022-08-04T12:58:42.193Z,27.80
2022-08-04T13:02:08.546Z,27.90
2022-08-04T13:04:30.050Z,28.00
2022-08-04T13:07:35.793Z,27.90
2022-08-04T13:10:20.395Z,28.00
2022-08-04T13:13:04.067Z,27.90
2022-08-04T13:15:47.431Z,27.90
2022-08-04T13:18:55.309Z,27.80
2022-08-04T13:21:50.213Z,27.70
2022-08-04T13:24:32.804Z,27.80
2022-08-04T13:27:19.002Z,27.80
2022-08-04T13:32:39.918Z,27.90
2022-08-04T13:35:16.012Z,27.90
2022-08-04T13:37:48.032Z,27.80
2022-08-04T13:40:23.625Z,27.60
2022-08-04T13:42:58.777Z,27.70
2022-08-04T13:45:35.018Z,27.80
2022-08-04T13:48:31.677Z,27.80
2022-08-04T13:51:06.590Z,27.80
2022-08-04T13:53:39.725Z,27.80
2022-08-04T13:56:15.005Z,27.70
2022-08-04T13:58:49.867Z,27.70
2022-08-04T14:01:35.498Z,27.60
2022-08-04T14:04:21.232Z,27.70
2022-08-04T14:06:54.468Z,27.70
2022-08-04T14:12:38.266Z,27.70
2022-08-04T14:16:02.009Z,27.60
2022-08-04T14:18:34.599Z,27.50
2022-08-04T14:21:13.487Z,27.50
2022-08-04T14:24:04.897Z,27.50
2022-08-04T14:26:38.689Z,27.50
2022-08-04T14:29:28.342Z,27.50
2022-08-04T14:32:22.804Z,27.50
2022-08-04T14:34:57.194Z,27.60
2022-08-04T14:37:28.362Z,27.60
2022-08-04T14:40:07.945Z,27.50
2022-08-04T14:42:54.849Z,27.40
2022-08-04T14:45:54.799Z,27.40
2022-08-04T14:48:28.099Z,27.40
2022-08-04T14:51:00.011Z,27.50
2022-08-04T14:53:31.786Z,27.50
2022-08-04T14:56:06.243Z,27.50
2022-08-04T14:58:39.537Z,27.50
2022-08-04T15:01:14.682Z,27.60
2022-08-04T15:03:49.600Z,27.60
2022-08-04T15:06:48.229Z,27.60
2022-08-04T15:09:23.147Z,27.60
2022-08-04T15:12:15.868Z,27.50
2022-08-04T15:14:50.203Z,27.40
2022-08-04T15:17:29.855Z,27.40
2022-08-04T15:20:24.809Z,27.20
2022-08-04T15:22:59.471Z,27.10
2022-08-04T15:25:56.667Z,27.00
2022-08-04T15:28:30.355Z,26.90
2022-08-04T15:31:10.286Z,26.90
2022-08-04T15:33:59.541Z,26.80
2022-08-04T15:36:40.376Z,26.60
2022-08-04T15:39:45.516Z,26.40
2022-08-04T15:42:50.548Z,26.40
2022-08-04T15:46:02.156Z,26.50
2022-08-04T15:48:23.264Z,26.50
2022-08-04T15:51:00.855Z,26.40
2022-08-04T15:54:02.552Z,26.40
2022-08-04T15:56:34.643Z,26.50
2022-08-04T15:59:08.780Z,26.60
2022-08-04T16:01:40.254Z,26.50
2022-08-04T16:04:32.396Z,26.40
2022-08-04T16:07:09.611Z,26.40
2022-08-04T16:09:45.815Z,26.40
2022-08-04T16:12:57.243Z,26.50
2022-08-04T16:15:56.179Z,26.50
2022-08-04T16:18:35.155Z,26.40
2022-08-04T16:24:58.735Z,26.40
2022-08-04T16:30:30.866Z,26.40
2022-08-04T16:33:04.660Z,26.20
2022-08-04T16:35:42.018Z,26.20
2022-08-04T16:38:19.062Z,26.10
2022-08-04T16:41:01.774Z,26.00
2022-08-04T16:43:34.758Z,26.20
2022-08-04T16:46:13.549Z,26.30
2022-08-04T16:49:10.194Z,26.20
2022-08-04T16:51:42.273Z,26.10
2022-08-04T16:54:13.985Z,26.10
2022-08-04T16:56:46.715Z,26.20
2022-08-04T16:59:18.285Z,26.10
2022-08-04T17:01:54.912Z,26.10
2022-08-04T17:04:38.362Z,26.10
2022-08-04T17:07:10.296Z,26.10
2022-08-04T17:09:52.542Z,26.10
2022-08-04T17:12:30.909Z,26.10
2022-08-04T17:15:02.463Z,26.10
2022-08-04T17:18:05.743Z,26.10
2022-08-04T17:20:58.991Z,26.10
2022-08-04T17:24:16.595Z,26.10
2022-08-04T17:26:40.299Z,26.10
2022-08-04T17:29:12.769Z,26.10
2022-08-04T17:32:16.902Z,26.10
2022-08-04T17:35:03.789Z,26.20
2022-08-04T17:37:39.999Z,26.10
2022-08-04T17:40:25.586Z,26.10
2022-08-04T17:44:00.871Z,26.10
2022-08-04T17:46:39.274Z,26.10
2022-08-04T17:49:19.140Z,26.10
2022-08-04T17:52:05.548Z,26.10
2022-08-04T17:54:43.365Z,26.10
2022-08-04T17:57:24.427Z,26.00
2022-08-04T18:00:01.410Z,26.00
2022-08-04T18:02:39.895Z,26.10
2022-08-04T18:05:12.330Z,26.10
2022-08-04T18:08:35.375Z,26.10
2022-08-04T18:10:56.125Z,26.10
2022-08-04T18:13:29.895Z,26.00
2022-08-04T18:16:22.317Z,26.00
2022-08-04T18:19:15.883Z,25.90
2022-08-04T18:22:00.213Z,25.80
2022-08-04T18:24:55.742Z,25.90
2022-08-04T18:27:29.865Z,26.00
2022-08-04T18:30:15.243Z,25.90
2022-08-04T18:33:24.286Z,26.00
2022-08-04T18:36:32.975Z,25.70
2022-08-04T18:38:54.566Z,25.80
2022-08-04T18:41:27.808Z,25.90
2022-08-04T18:43:59.672Z,26.00
2022-08-04T18:46:31.177Z,26.00
2022-08-04T18:49:02.182Z,26.00
2022-08-04T18:51:33.352Z,26.00
2022-08-04T18:54:04.715Z,26.00
2022-08-04T18:56:37.745Z,26.00
2022-08-04T18:59:10.235Z,26.00
2022-08-04T19:02:13.609Z,26.00
2022-08-04T19:04:36.976Z,26.00
2022-08-04T19:07:24.585Z,26.00
2022-08-04T19:10:00.249Z,26.00
2022-08-04T19:12:34.400Z,26.10
2022-08-04T19:17:59.985Z,25.90
2022-08-04T19:20:32.293Z,25.90
2022-08-04T19:24:11.606Z,25.80
2022-08-04T19:25:59.095Z,25.90
2022-08-04T19:28:37.566Z,25.90
2022-08-04T19:31:09.474Z,25.90
2022-08-04T19:33:58.970Z,25.90
2022-08-04T19:36:34.958Z,26.00
2022-08-04T19:39:11.664Z,25.90
2022-08-04T19:42:04.847Z,25.90
2022-08-04T19:44:35.499Z,26.00
2022-08-04T19:48:17.795Z,26.00
2022-08-04T19:50:10.757Z,26.00
2022-08-04T19:52:51.635Z,25.90
2022-08-04T19:55:37.393Z,26.00
2022-08-04T19:58:10.678Z,26.00
2022-08-04T20:00:44.628Z,26.00
2022-08-04T20:03:22.621Z,26.00
2022-08-04T20:06:13.918Z,25.80
2022-08-04T20:08:50.942Z,25.80
2022-08-04T20:11:25.720Z,25.70
2022-08-04T20:13:58.505Z,25.70
2022-08-04T20:16:30.965Z,25.70
2022-08-04T20:19:04.072Z,25.70
2022-08-04T20:21:55.090Z,25.70
2022-08-04T20:24:41.556Z,25.60
2022-08-04T20:27:16.346Z,25.60
2022-08-04T20:29:49.732Z,25.50
2022-08-04T20:38:06.277Z,25.40
2022-08-04T20:40:57.540Z,25.40
2022-08-04T20:43:31.401Z,25.50
2022-08-04T20:46:02.851Z,25.40
2022-08-04T20:48:49.972Z,25.40
2022-08-04T20:51:31.556Z,25.30
2022-08-04T20:54:16.025Z,25.30
2022-08-04T20:59:39.598Z,25.20
2022-08-04T21:02:16.274Z,25.20
2022-08-04T21:04:48.689Z,25.20
2022-08-04T21:07:20.347Z,25.20
2022-08-04T21:09:52.184Z,25.20
2022-08-04T21:12:27.824Z,25.20
2022-08-04T21:15:13.180Z,25.10
2022-08-04T21:17:58.348Z,25.10
2022-08-04T21:20:40.915Z,25.00
2022-08-04T21:23:14.525Z,25.10
2022-08-04T21:25:49.845Z,25.20
2022-08-04T21:28:21.026Z,25.10
2022-08-04T21:30:56.772Z,25.20
2022-08-04T21:33:50.952Z,25.30
2022-08-04T21:36:20.332Z,25.40
2022-08-04T21:38:52.542Z,25.50
2022-08-04T21:41:26.808Z,25.30
2022-08-04T21:46:49.742Z,25.30
2022-08-04T21:49:22.012Z,25.20
2022-08-04T21:51:56.855Z,25.20
2022-08-04T21:54:31.726Z,25.10
2022-08-04T21:57:03.838Z,25.20
2022-08-04T21:59:43.035Z,25.10
2022-08-04T22:02:16.932Z,25.10
2022-08-04T22:04:49.808Z,25.20
2022-08-04T22:07:22.986Z,25.20
2022-08-04T22:10:00.038Z,25.20
2022-08-04T22:12:34.305Z,25.20
2022-08-04T22:15:24.156Z,25.30
2022-08-04T22:18:14.215Z,25.40
2022-08-04T22:20:45.038Z,25.40
2022-08-04T22:23:16.978Z,25.40
2022-08-04T22:25:55.609Z,25.30
2022-08-04T22:28:28.502Z,25.40
2022-08-04T22:31:23.890Z,25.40
2022-08-04T22:33:56.340Z,25.40
2022-08-04T22:36:26.938Z,25.40
2022-08-04T22:39:06.829Z,25.50
2022-08-04T22:41:48.565Z,25.50
2022-08-04T22:44:21.424Z,25.40
2022-08-04T22:46:54.849Z,25.40
2022-08-04T22:49:31.360Z,25.40
2022-08-04T22:52:10.058Z,25.50
2022-08-04T22:54:49.706Z,25.40
2022-08-04T22:57:25.052Z,25.40
2022-08-04T23:00:14.590Z,25.30
2022-08-04T23:02:45.359Z,25.30
2022-08-04T23:08:05.246Z,25.20
2022-08-04T23:10:37.518Z,25.20
2022-08-04T23:13:16.070Z,25.20
2022-08-04T23:15:47.606Z,25.20
2022-08-04T23:18:40.226Z,25.20
2022-08-04T23:21:13.920Z,25.30
2022-08-04T23:23:47.758Z,25.30
2022-08-04T23:26:35.114Z,25.30
2022-08-04T23:29:06.147Z,25.30
2022-08-04T23:31:41.667Z,25.20
2022-08-04T23:34:47.755Z,25.10
2022-08-04T23:37:18.668Z,25.20
2022-08-04T23:40:14.391Z,25.20
2022-08-04T23:42:40.497Z,25.10
2022-08-04T23:45:15.018Z,25.10
2022-08-04T23:48:18.389Z,25.10
2022-08-04T23:50:51.824Z,25.10
2022-08-04T23:53:24.088Z,25.10
2022-08-04T23:55:54.844Z,25.10
2022-08-04T23:58:28.206Z,25.20
